sensor_id;sensor_type;location;lat;lon;timestamp;P1;durP1;ratioP1;P2;durP2;ratioP2
13269;SDS011;6703;51.994;7.570;2023-03-14T00:01:58;5.85;;;1.50;;
13269;SDS011;6703;51.994;7.570;2023-03-14T00:04:26;10.13;;;1.75;;
13269;SDS011;6703;51.994;7.570;2023-03-14T00:06:53;8.60;;;1.67;;
13269;SDS011;6703;51.994;7.570;2023-03-14T00:09:21;3.72;;;1.10;;
13269;SDS011;6703;51.994;7.570;2023-03-14T00:11:59;8.70;;;1.67;;
13269;SDS011;6703;51.994;7.570;2023-03-14T00:14:29;9.23;;;1.70;;
13269;SDS011;6703;51.994;7.570;2023-03-14T00:16:58;7.88;;;1.58;;
13269;SDS011;6703;51.994;7.570;2023-03-14T00:19:25;6.55;;;1.60;;
13269;SDS011;6703;51.994;7.570;2023-03-14T00:21:53;6.55;;;1.50;;
13269;SDS011;6703;51.994;7.570;2023-03-14T00:24:21;9.02;;;1.38;;
13269;SDS011;6703;51.994;7.570;2023-03-14T00:26:49;9.80;;;2.05;;
13269;SDS011;6703;51.994;7.570;2023-03-14T00:29:18;7.70;;;1.40;;
13269;SDS011;6703;51.994;7.570;2023-03-14T00:31:46;10.63;;;1.70;;
13269;SDS011;6703;51.994;7.570;2023-03-14T00:34:13;7.25;;;1.45;;
13269;SDS011;6703;51.994;7.570;2023-03-14T00:36:41;7.85;;;1.58;;
13269;SDS011;6703;51.994;7.570;2023-03-14T00:39:09;10.55;;;1.77;;
13269;SDS011;6703;51.994;7.570;2023-03-14T00:41:36;8.93;;;1.58;;
13269;SDS011;6703;51.994;7.570;2023-03-14T00:44:04;4.75;;;1.50;;
13269;SDS011;6703;51.994;7.570;2023-03-14T00:46:33;7.50;;;1.60;;
13269;SDS011;6703;51.994;7.570;2023-03-14T00:49:02;8.90;;;1.48;;
13269;SDS011;6703;51.994;7.570;2023-03-14T00:51:30;9.35;;;1.77;;
13269;SDS011;6703;51.994;7.570;2023-03-14T00:53:59;9.35;;;1.40;;
13269;SDS011;6703;51.994;7.570;2023-03-14T00:56:26;7.38;;;1.55;;
13269;SDS011;6703;51.994;7.570;2023-03-14T00:58:54;7.30;;;1.97;;
13269;SDS011;6703;51.994;7.570;2023-03-14T01:01:22;10.25;;;1.70;;
13269;SDS011;6703;51.994;7.570;2023-03-14T01:03:52;13.70;;;1.70;;
13269;SDS011;6703;51.994;7.570;2023-03-14T01:06:22;8.32;;;1.48;;
13269;SDS011;6703;51.994;7.570;2023-03-14T01:08:51;6.82;;;1.33;;
13269;SDS011;6703;51.994;7.570;2023-03-14T01:11:19;5.40;;;1.42;;
13269;SDS011;6703;51.994;7.570;2023-03-14T01:13:49;9.38;;;1.50;;
13269;SDS011;6703;51.994;7.570;2023-03-14T01:16:17;7.15;;;1.63;;
13269;SDS011;6703;51.994;7.570;2023-03-14T01:18:46;11.15;;;1.90;;
13269;SDS011;6703;51.994;7.570;2023-03-14T01:21:15;7.97;;;1.10;;
13269;SDS011;6703;51.994;7.570;2023-03-14T01:23:44;8.70;;;1.67;;
13269;SDS011;6703;51.994;7.570;2023-03-14T01:26:14;9.55;;;1.60;;
13269;SDS011;6703;51.994;7.570;2023-03-14T01:28:42;6.55;;;1.40;;
13269;SDS011;6703;51.994;7.570;2023-03-14T01:31:10;8.88;;;1.60;;
13269;SDS011;6703;51.994;7.570;2023-03-14T01:33:39;10.02;;;1.50;;
13269;SDS011;6703;51.994;7.570;2023-03-14T01:36:08;11.45;;;1.80;;
13269;SDS011;6703;51.994;7.570;2023-03-14T01:38:38;8.57;;;1.60;;
13269;SDS011;6703;51.994;7.570;2023-03-14T01:41:07;9.07;;;1.70;;
13269;SDS011;6703;51.994;7.570;2023-03-14T01:43:36;2.63;;;0.90;;
13269;SDS011;6703;51.994;7.570;2023-03-14T01:46:12;12.45;;;1.73;;
13269;SDS011;6703;51.994;7.570;2023-03-14T01:48:46;7.80;;;1.67;;
13269;SDS011;6703;51.994;7.570;2023-03-14T01:51:18;6.77;;;1.50;;
13269;SDS011;6703;51.994;7.570;2023-03-14T01:53:50;5.00;;;1.90;;
13269;SDS011;6703;51.994;7.570;2023-03-14T01:56:18;7.60;;;1.30;;
13269;SDS011;6703;51.994;7.570;2023-03-14T01:58:47;3.67;;;0.98;;
13269;SDS011;6703;51.994;7.570;2023-03-14T02:01:16;8.90;;;1.20;;
13269;SDS011;6703;51.994;7.570;2023-03-14T02:03:47;10.05;;;1.20;;
13269;SDS011;6703;51.994;7.570;2023-03-14T02:06:17;5.82;;;1.38;;
13269;SDS011;6703;51.994;7.570;2023-03-14T02:08:47;7.35;;;1.00;;
13269;SDS011;6703;51.994;7.570;2023-03-14T02:11:17;3.00;;;1.02;;
13269;SDS011;6703;51.994;7.570;2023-03-14T02:13:45;1.63;;;0.97;;
13269;SDS011;6703;51.994;7.570;2023-03-14T02:16:13;3.50;;;1.08;;
13269;SDS011;6703;51.994;7.570;2023-03-14T02:18:41;5.60;;;0.80;;
13269;SDS011;6703;51.994;7.570;2023-03-14T02:21:11;7.63;;;1.05;;
13269;SDS011;6703;51.994;7.570;2023-03-14T02:23:43;3.08;;;0.88;;
13269;SDS011;6703;51.994;7.570;2023-03-14T02:26:19;4.55;;;0.90;;
13269;SDS011;6703;51.994;7.570;2023-03-14T02:28:49;4.85;;;1.15;;
13269;SDS011;6703;51.994;7.570;2023-03-14T02:31:19;4.20;;;0.80;;
13269;SDS011;6703;51.994;7.570;2023-03-14T02:33:48;7.65;;;1.13;;
13269;SDS011;6703;51.994;7.570;2023-03-14T02:36:16;7.60;;;1.33;;
13269;SDS011;6703;51.994;7.570;2023-03-14T02:38:47;9.07;;;1.88;;
13269;SDS011;6703;51.994;7.570;2023-03-14T02:41:20;6.18;;;1.33;;
13269;SDS011;6703;51.994;7.570;2023-03-14T02:43:47;8.20;;;1.60;;
13269;SDS011;6703;51.994;7.570;2023-03-14T02:46:18;10.82;;;1.70;;
13269;SDS011;6703;51.994;7.570;2023-03-14T02:48:47;9.23;;;1.55;;
13269;SDS011;6703;51.994;7.570;2023-03-14T02:51:16;9.57;;;1.38;;
13269;SDS011;6703;51.994;7.570;2023-03-14T02:53:44;6.97;;;1.42;;
13269;SDS011;6703;51.994;7.570;2023-03-14T02:56:12;8.63;;;1.23;;
13269;SDS011;6703;51.994;7.570;2023-03-14T02:58:40;7.88;;;1.27;;
13269;SDS011;6703;51.994;7.570;2023-03-14T03:01:09;8.73;;;1.40;;
13269;SDS011;6703;51.994;7.570;2023-03-14T03:03:37;9.93;;;1.80;;
13269;SDS011;6703;51.994;7.570;2023-03-14T03:06:05;10.13;;;2.40;;
13269;SDS011;6703;51.994;7.570;2023-03-14T03:08:33;10.07;;;1.88;;
13269;SDS011;6703;51.994;7.570;2023-03-14T03:11:01;9.60;;;1.53;;
13269;SDS011;6703;51.994;7.570;2023-03-14T03:13:29;7.30;;;1.50;;
13269;SDS011;6703;51.994;7.570;2023-03-14T03:15:56;7.63;;;1.40;;
13269;SDS011;6703;51.994;7.570;2023-03-14T03:18:25;9.40;;;1.38;;
13269;SDS011;6703;51.994;7.570;2023-03-14T03:20:53;8.20;;;1.60;;
13269;SDS011;6703;51.994;7.570;2023-03-14T03:23:21;10.85;;;2.03;;
13269;SDS011;6703;51.994;7.570;2023-03-14T03:25:49;8.13;;;1.80;;
13269;SDS011;6703;51.994;7.570;2023-03-14T03:28:17;7.32;;;1.48;;
13269;SDS011;6703;51.994;7.570;2023-03-14T03:30:46;10.65;;;1.52;;
13269;SDS011;6703;51.994;7.570;2023-03-14T03:33:13;11.68;;;1.50;;
13269;SDS011;6703;51.994;7.570;2023-03-14T03:35:44;8.25;;;2.05;;
13269;SDS011;6703;51.994;7.570;2023-03-14T03:38:12;7.47;;;1.60;;
13269;SDS011;6703;51.994;7.570;2023-03-14T03:40:40;9.90;;;1.50;;
13269;SDS011;6703;51.994;7.570;2023-03-14T03:43:08;10.02;;;1.95;;
13269;SDS011;6703;51.994;7.570;2023-03-14T03:45:36;6.05;;;1.25;;
13269;SDS011;6703;51.994;7.570;2023-03-14T03:48:04;10.13;;;2.70;;
13269;SDS011;6703;51.994;7.570;2023-03-14T03:50:31;11.05;;;2.20;;
13269;SDS011;6703;51.994;7.570;2023-03-14T03:53:01;7.87;;;2.30;;
13269;SDS011;6703;51.994;7.570;2023-03-14T03:55:58;9.23;;;2.10;;
13269;SDS011;6703;51.994;7.570;2023-03-14T03:58:28;10.57;;;2.37;;
13269;SDS011;6703;51.994;7.570;2023-03-14T04:00:55;8.70;;;2.80;;
13269;SDS011;6703;51.994;7.570;2023-03-14T04:03:23;10.73;;;2.85;;
13269;SDS011;6703;51.994;7.570;2023-03-14T04:06:14;12.27;;;3.17;;
13269;SDS011;6703;51.994;7.570;2023-03-14T04:08:43;15.00;;;3.53;;
13269;SDS011;6703;51.994;7.570;2023-03-14T04:11:11;18.53;;;3.60;;
13269;SDS011;6703;51.994;7.570;2023-03-14T04:13:39;11.43;;;3.42;;
13269;SDS011;6703;51.994;7.570;2023-03-14T04:16:09;13.47;;;3.33;;
13269;SDS011;6703;51.994;7.570;2023-03-14T04:18:40;10.48;;;3.33;;
13269;SDS011;6703;51.994;7.570;2023-03-14T04:21:08;10.43;;;3.10;;
13269;SDS011;6703;51.994;7.570;2023-03-14T04:23:35;11.00;;;3.10;;
13269;SDS011;6703;51.994;7.570;2023-03-14T04:26:05;16.85;;;3.35;;
13269;SDS011;6703;51.994;7.570;2023-03-14T04:28:33;10.80;;;2.88;;
13269;SDS011;6703;51.994;7.570;2023-03-14T04:31:06;8.32;;;3.15;;
13269;SDS011;6703;51.994;7.570;2023-03-14T04:33:34;17.70;;;3.90;;
13269;SDS011;6703;51.994;7.570;2023-03-14T04:36:03;14.47;;;3.87;;
13269;SDS011;6703;51.994;7.570;2023-03-14T04:38:32;14.13;;;3.40;;
13269;SDS011;6703;51.994;7.570;2023-03-14T04:41:00;14.77;;;3.40;;
13269;SDS011;6703;51.994;7.570;2023-03-14T04:43:45;11.48;;;2.90;;
13269;SDS011;6703;51.994;7.570;2023-03-14T04:46:13;10.87;;;2.97;;
13269;SDS011;6703;51.994;7.570;2023-03-14T04:48:41;11.00;;;2.33;;
13269;SDS011;6703;51.994;7.570;2023-03-14T04:51:08;12.93;;;2.70;;
13269;SDS011;6703;51.994;7.570;2023-03-14T04:53:36;7.38;;;2.17;;
13269;SDS011;6703;51.994;7.570;2023-03-14T04:56:04;10.70;;;2.65;;
13269;SDS011;6703;51.994;7.570;2023-03-14T04:58:33;12.75;;;2.72;;
13269;SDS011;6703;51.994;7.570;2023-03-14T05:01:05;10.82;;;2.88;;
13269;SDS011;6703;51.994;7.570;2023-03-14T05:03:33;17.40;;;4.10;;
13269;SDS011;6703;51.994;7.570;2023-03-14T05:06:04;19.52;;;6.65;;
13269;SDS011;6703;51.994;7.570;2023-03-14T05:08:32;33.33;;;8.73;;
13269;SDS011;6703;51.994;7.570;2023-03-14T05:11:00;29.73;;;8.60;;
13269;SDS011;6703;51.994;7.570;2023-03-14T05:13:29;20.42;;;6.68;;
13269;SDS011;6703;51.994;7.570;2023-03-14T05:16:03;22.73;;;6.10;;
13269;SDS011;6703;51.994;7.570;2023-03-14T05:18:33;17.42;;;4.47;;
13269;SDS011;6703;51.994;7.570;2023-03-14T05:21:00;8.07;;;2.35;;
13269;SDS011;6703;51.994;7.570;2023-03-14T05:23:28;10.00;;;2.60;;
13269;SDS011;6703;51.994;7.570;2023-03-14T05:25:56;15.37;;;3.00;;
13269;SDS011;6703;51.994;7.570;2023-03-14T05:28:24;8.23;;;2.45;;
13269;SDS011;6703;51.994;7.570;2023-03-14T05:30:52;12.45;;;2.63;;
13269;SDS011;6703;51.994;7.570;2023-03-14T05:33:20;11.20;;;2.05;;
13269;SDS011;6703;51.994;7.570;2023-03-14T05:35:49;6.75;;;2.55;;
13269;SDS011;6703;51.994;7.570;2023-03-14T05:38:17;10.00;;;2.10;;
13269;SDS011;6703;51.994;7.570;2023-03-14T05:40:45;9.68;;;1.50;;
13269;SDS011;6703;51.994;7.570;2023-03-14T05:43:13;9.98;;;2.13;;
13269;SDS011;6703;51.994;7.570;2023-03-14T05:45:42;9.05;;;1.65;;
13269;SDS011;6703;51.994;7.570;2023-03-14T05:48:10;9.68;;;1.30;;
13269;SDS011;6703;51.994;7.570;2023-03-14T05:50:37;6.90;;;1.20;;
13269;SDS011;6703;51.994;7.570;2023-03-14T05:53:06;8.45;;;1.85;;
13269;SDS011;6703;51.994;7.570;2023-03-14T05:55:34;8.48;;;1.13;;
13269;SDS011;6703;51.994;7.570;2023-03-14T05:58:02;8.45;;;1.35;;
13269;SDS011;6703;51.994;7.570;2023-03-14T06:00:30;8.27;;;1.23;;
13269;SDS011;6703;51.994;7.570;2023-03-14T06:02:58;7.13;;;1.10;;
13269;SDS011;6703;51.994;7.570;2023-03-14T06:05:44;8.23;;;1.27;;
13269;SDS011;6703;51.994;7.570;2023-03-14T06:08:13;5.70;;;1.33;;
13269;SDS011;6703;51.994;7.570;2023-03-14T06:10:43;7.90;;;1.60;;
13269;SDS011;6703;51.994;7.570;2023-03-14T06:13:10;6.22;;;1.60;;
13269;SDS011;6703;51.994;7.570;2023-03-14T06:15:38;7.15;;;1.60;;
13269;SDS011;6703;51.994;7.570;2023-03-14T06:18:06;7.28;;;1.40;;
13269;SDS011;6703;51.994;7.570;2023-03-14T06:20:35;10.32;;;2.10;;
13269;SDS011;6703;51.994;7.570;2023-03-14T06:23:05;5.80;;;1.30;;
13269;SDS011;6703;51.994;7.570;2023-03-14T06:25:34;2.97;;;1.00;;
13269;SDS011;6703;51.994;7.570;2023-03-14T06:28:02;11.43;;;1.48;;
13269;SDS011;6703;51.994;7.570;2023-03-14T06:30:30;7.47;;;1.30;;
13269;SDS011;6703;51.994;7.570;2023-03-14T06:32:58;4.85;;;1.38;;
13269;SDS011;6703;51.994;7.570;2023-03-14T06:35:25;3.65;;;1.30;;
13269;SDS011;6703;51.994;7.570;2023-03-14T06:37:53;3.43;;;1.33;;
13269;SDS011;6703;51.994;7.570;2023-03-14T06:40:21;5.35;;;1.67;;
13269;SDS011;6703;51.994;7.570;2023-03-14T06:42:50;6.70;;;1.80;;
13269;SDS011;6703;51.994;7.570;2023-03-14T06:45:18;6.30;;;2.10;;
13269;SDS011;6703;51.994;7.570;2023-03-14T06:47:46;4.78;;;2.03;;
13269;SDS011;6703;51.994;7.570;2023-03-14T06:50:13;4.18;;;2.03;;
13269;SDS011;6703;51.994;7.570;2023-03-14T06:52:41;5.33;;;2.27;;
13269;SDS011;6703;51.994;7.570;2023-03-14T06:55:14;6.32;;;2.78;;
13269;SDS011;6703;51.994;7.570;2023-03-14T06:57:42;8.05;;;3.60;;
13269;SDS011;6703;51.994;7.570;2023-03-14T07:00:12;9.83;;;3.70;;
13269;SDS011;6703;51.994;7.570;2023-03-14T07:02:41;9.25;;;4.30;;
13269;SDS011;6703;51.994;7.570;2023-03-14T07:05:09;8.18;;;4.57;;
13269;SDS011;6703;51.994;7.570;2023-03-14T07:07:37;9.32;;;5.20;;
13269;SDS011;6703;51.994;7.570;2023-03-14T07:10:05;11.75;;;5.38;;
13269;SDS011;6703;51.994;7.570;2023-03-14T07:12:36;9.13;;;4.80;;
13269;SDS011;6703;51.994;7.570;2023-03-14T07:15:05;10.15;;;5.47;;
13269;SDS011;6703;51.994;7.570;2023-03-14T07:17:45;9.85;;;4.53;;
13269;SDS011;6703;51.994;7.570;2023-03-14T07:20:14;9.98;;;4.38;;
13269;SDS011;6703;51.994;7.570;2023-03-14T07:22:42;5.22;;;3.20;;
13269;SDS011;6703;51.994;7.570;2023-03-14T07:25:10;6.00;;;3.00;;
13269;SDS011;6703;51.994;7.570;2023-03-14T07:27:38;6.35;;;3.15;;
13269;SDS011;6703;51.994;7.570;2023-03-14T07:30:06;5.20;;;2.95;;
13269;SDS011;6703;51.994;7.570;2023-03-14T07:32:34;3.95;;;2.60;;
13269;SDS011;6703;51.994;7.570;2023-03-14T07:35:04;5.97;;;3.00;;
13269;SDS011;6703;51.994;7.570;2023-03-14T07:37:33;5.95;;;3.17;;
13269;SDS011;6703;51.994;7.570;2023-03-14T07:40:00;6.00;;;3.22;;
13269;SDS011;6703;51.994;7.570;2023-03-14T07:42:31;5.80;;;3.53;;
13269;SDS011;6703;51.994;7.570;2023-03-14T07:44:59;8.95;;;4.30;;
13269;SDS011;6703;51.994;7.570;2023-03-14T07:47:27;7.15;;;3.67;;
13269;SDS011;6703;51.994;7.570;2023-03-14T07:49:54;7.80;;;3.70;;
13269;SDS011;6703;51.994;7.570;2023-03-14T07:52:23;8.83;;;4.23;;
13269;SDS011;6703;51.994;7.570;2023-03-14T07:54:51;10.60;;;4.13;;
13269;SDS011;6703;51.994;7.570;2023-03-14T07:57:19;10.88;;;4.60;;
13269;SDS011;6703;51.994;7.570;2023-03-14T07:59:47;7.47;;;3.43;;
13269;SDS011;6703;51.994;7.570;2023-03-14T08:02:14;9.18;;;4.25;;
13269;SDS011;6703;51.994;7.570;2023-03-14T08:04:42;7.47;;;4.38;;
13269;SDS011;6703;51.994;7.570;2023-03-14T08:07:10;8.45;;;4.18;;
13269;SDS011;6703;51.994;7.570;2023-03-14T08:09:39;8.40;;;4.40;;
13269;SDS011;6703;51.994;7.570;2023-03-14T08:12:07;10.10;;;4.65;;
13269;SDS011;6703;51.994;7.570;2023-03-14T08:14:34;7.93;;;4.68;;
13269;SDS011;6703;51.994;7.570;2023-03-14T08:17:02;9.48;;;4.50;;
13269;SDS011;6703;51.994;7.570;2023-03-14T08:19:30;8.00;;;4.65;;
13269;SDS011;6703;51.994;7.570;2023-03-14T08:21:58;8.75;;;4.72;;
13269;SDS011;6703;51.994;7.570;2023-03-14T08:24:39;6.88;;;4.53;;
13269;SDS011;6703;51.994;7.570;2023-03-14T08:27:08;8.52;;;4.88;;
13269;SDS011;6703;51.994;7.570;2023-03-14T08:29:36;7.68;;;4.57;;
13269;SDS011;6703;51.994;7.570;2023-03-14T08:32:04;7.47;;;4.27;;
13269;SDS011;6703;51.994;7.570;2023-03-14T08:34:32;7.72;;;4.15;;
13269;SDS011;6703;51.994;7.570;2023-03-14T08:37:00;6.90;;;4.00;;
13269;SDS011;6703;51.994;7.570;2023-03-14T08:39:36;6.70;;;4.05;;
13269;SDS011;6703;51.994;7.570;2023-03-14T08:42:05;5.50;;;3.83;;
13269;SDS011;6703;51.994;7.570;2023-03-14T08:44:33;7.93;;;3.90;;
13269;SDS011;6703;51.994;7.570;2023-03-14T08:47:01;5.57;;;3.95;;
13269;SDS011;6703;51.994;7.570;2023-03-14T08:49:29;4.82;;;2.95;;
13269;SDS011;6703;51.994;7.570;2023-03-14T08:51:57;7.47;;;3.55;;
13269;SDS011;6703;51.994;7.570;2023-03-14T08:54:25;6.35;;;3.00;;
13269;SDS011;6703;51.994;7.570;2023-03-14T08:56:53;6.32;;;3.33;;
13269;SDS011;6703;51.994;7.570;2023-03-14T08:59:22;4.63;;;3.03;;
13269;SDS011;6703;51.994;7.570;2023-03-14T09:02:12;5.40;;;3.17;;
13269;SDS011;6703;51.994;7.570;2023-03-14T09:04:41;4.97;;;3.05;;
13269;SDS011;6703;51.994;7.570;2023-03-14T09:07:08;6.55;;;3.33;;
13269;SDS011;6703;51.994;7.570;2023-03-14T09:09:36;2.95;;;2.33;;
13269;SDS011;6703;51.994;7.570;2023-03-14T09:12:04;2.50;;;2.00;;
13269;SDS011;6703;51.994;7.570;2023-03-14T09:14:34;3.10;;;1.98;;
13269;SDS011;6703;51.994;7.570;2023-03-14T09:17:02;2.45;;;1.75;;
13269;SDS011;6703;51.994;7.570;2023-03-14T09:19:44;3.03;;;1.70;;
13269;SDS011;6703;51.994;7.570;2023-03-14T09:22:12;2.55;;;1.58;;
13269;SDS011;6703;51.994;7.570;2023-03-14T09:24:40;4.47;;;1.75;;
13269;SDS011;6703;51.994;7.570;2023-03-14T09:27:07;2.80;;;1.77;;
13269;SDS011;6703;51.994;7.570;2023-03-14T09:29:37;3.25;;;1.63;;
13269;SDS011;6703;51.994;7.570;2023-03-14T09:32:04;0.98;;;0.73;;
13269;SDS011;6703;51.994;7.570;2023-03-14T09:34:32;0.43;;;0.43;;
13269;SDS011;6703;51.994;7.570;2023-03-14T09:37:02;0.00;;;0.00;;
13269;SDS011;6703;51.994;7.570;2023-03-14T09:39:30;0.00;;;0.00;;
13269;SDS011;6703;51.994;7.570;2023-03-14T09:42:01;0.00;;;0.00;;
13269;SDS011;6703;51.994;7.570;2023-03-14T09:44:31;2.20;;;1.70;;
13269;SDS011;6703;51.994;7.570;2023-03-14T09:47:02;0.08;;;0.08;;
13269;SDS011;6703;51.994;7.570;2023-03-14T09:49:33;0.00;;;0.00;;
13269;SDS011;6703;51.994;7.570;2023-03-14T09:52:02;0.10;;;0.10;;
13269;SDS011;6703;51.994;7.570;2023-03-14T09:54:34;0.00;;;0.00;;
13269;SDS011;6703;51.994;7.570;2023-03-14T09:57:04;0.00;;;0.00;;
13269;SDS011;6703;51.994;7.570;2023-03-14T09:59:32;0.00;;;0.00;;
13269;SDS011;6703;51.994;7.570;2023-03-14T10:02:10;0.00;;;0.00;;
13269;SDS011;6703;51.994;7.570;2023-03-14T10:04:40;0.00;;;0.00;;
13269;SDS011;6703;51.994;7.570;2023-03-14T10:07:11;0.00;;;0.00;;
13269;SDS011;6703;51.994;7.570;2023-03-14T10:09:43;0.00;;;0.00;;
13269;SDS011;6703;51.994;7.570;2023-03-14T10:12:11;0.50;;;0.50;;
13269;SDS011;6703;51.994;7.570;2023-03-14T10:14:44;0.00;;;0.00;;
13269;SDS011;6703;51.994;7.570;2023-03-14T10:17:15;0.00;;;0.00;;
13269;SDS011;6703;51.994;7.570;2023-03-14T10:19:50;0.00;;;0.00;;
13269;SDS011;6703;51.994;7.570;2023-03-14T10:22:19;0.00;;;0.00;;
13269;SDS011;6703;51.994;7.570;2023-03-14T10:24:51;0.00;;;0.00;;
13269;SDS011;6703;51.994;7.570;2023-03-14T10:27:21;0.10;;;0.10;;
13269;SDS011;6703;51.994;7.570;2023-03-14T10:29:51;0.70;;;0.70;;
13269;SDS011;6703;51.994;7.570;2023-03-14T10:32:31;0.00;;;0.00;;
13269;SDS011;6703;51.994;7.570;2023-03-14T10:35:05;0.00;;;0.00;;
13269;SDS011;6703;51.994;7.570;2023-03-14T10:37:36;0.00;;;0.00;;
13269;SDS011;6703;51.994;7.570;2023-03-14T10:40:16;0.00;;;0.00;;
13269;SDS011;6703;51.994;7.570;2023-03-14T10:42:45;0.00;;;0.00;;
13269;SDS011;6703;51.994;7.570;2023-03-14T10:45:22;0.00;;;0.00;;
13269;SDS011;6703;51.994;7.570;2023-03-14T10:48:06;0.00;;;0.00;;
13269;SDS011;6703;51.994;7.570;2023-03-14T10:51:09;0.00;;;0.00;;
13269;SDS011;6703;51.994;7.570;2023-03-14T10:53:39;0.00;;;0.00;;
13269;SDS011;6703;51.994;7.570;2023-03-14T10:56:11;0.40;;;0.30;;
13269;SDS011;6703;51.994;7.570;2023-03-14T10:58:40;0.00;;;0.00;;
13269;SDS011;6703;51.994;7.570;2023-03-14T11:01:13;0.00;;;0.00;;
13269;SDS011;6703;51.994;7.570;2023-03-14T11:03:53;0.00;;;0.00;;
13269;SDS011;6703;51.994;7.570;2023-03-14T11:06:25;0.00;;;0.00;;
13269;SDS011;6703;51.994;7.570;2023-03-14T11:09:00;0.00;;;0.00;;
13269;SDS011;6703;51.994;7.570;2023-03-14T11:14:31;0.00;;;0.00;;
13269;SDS011;6703;51.994;7.570;2023-03-14T11:17:04;0.00;;;0.00;;
13269;SDS011;6703;51.994;7.570;2023-03-14T11:19:43;6.50;;;0.70;;
13269;SDS011;6703;51.994;7.570;2023-03-14T11:22:21;0.00;;;0.00;;
13269;SDS011;6703;51.994;7.570;2023-03-14T11:30:22;0.00;;;0.00;;
13269;SDS011;6703;51.994;7.570;2023-03-14T11:32:56;0.08;;;0.08;;
13269;SDS011;6703;51.994;7.570;2023-03-14T11:35:29;0.10;;;0.10;;
13269;SDS011;6703;51.994;7.570;2023-03-14T11:38:00;0.10;;;0.10;;
13269;SDS011;6703;51.994;7.570;2023-03-14T11:40:32;0.00;;;0.00;;
13269;SDS011;6703;51.994;7.570;2023-03-14T11:43:02;0.00;;;0.00;;
13269;SDS011;6703;51.994;7.570;2023-03-14T11:46:21;0.30;;;0.30;;
13269;SDS011;6703;51.994;7.570;2023-03-14T11:48:45;0.00;;;0.00;;
13269;SDS011;6703;51.994;7.570;2023-03-14T11:51:25;0.00;;;0.00;;
13269;SDS011;6703;51.994;7.570;2023-03-14T11:54:01;1.50;;;1.10;;
13269;SDS011;6703;51.994;7.570;2023-03-14T11:57:01;0.00;;;0.00;;
13269;SDS011;6703;51.994;7.570;2023-03-14T12:02:18;1.60;;;0.60;;
13269;SDS011;6703;51.994;7.570;2023-03-14T12:04:54;3.40;;;1.50;;
13269;SDS011;6703;51.994;7.570;2023-03-14T12:07:34;0.00;;;0.00;;
13269;SDS011;6703;51.994;7.570;2023-03-14T12:10:08;1.30;;;0.80;;
13269;SDS011;6703;51.994;7.570;2023-03-14T12:12:36;0.00;;;0.00;;
13269;SDS011;6703;51.994;7.570;2023-03-14T12:15:04;0.00;;;0.00;;
13269;SDS011;6703;51.994;7.570;2023-03-14T12:17:34;0.00;;;0.00;;
13269;SDS011;6703;51.994;7.570;2023-03-14T12:20:04;4.10;;;1.20;;
13269;SDS011;6703;51.994;7.570;2023-03-14T12:22:37;0.10;;;0.10;;
13269;SDS011;6703;51.994;7.570;2023-03-14T12:25:13;3.20;;;1.50;;
13269;SDS011;6703;51.994;7.570;2023-03-14T12:27:44;0.40;;;0.40;;
13269;SDS011;6703;51.994;7.570;2023-03-14T12:30:34;0.30;;;0.30;;
13269;SDS011;6703;51.994;7.570;2023-03-14T12:33:19;0.00;;;0.00;;
13269;SDS011;6703;51.994;7.570;2023-03-14T12:36:02;0.00;;;0.00;;
13269;SDS011;6703;51.994;7.570;2023-03-14T12:38:39;0.00;;;0.00;;
13269;SDS011;6703;51.994;7.570;2023-03-14T12:41:13;0.10;;;0.10;;
13269;SDS011;6703;51.994;7.570;2023-03-14T12:43:42;0.47;;;0.47;;
13269;SDS011;6703;51.994;7.570;2023-03-14T12:46:20;0.00;;;0.00;;
13269;SDS011;6703;51.994;7.570;2023-03-14T12:48:49;2.10;;;1.10;;
13269;SDS011;6703;51.994;7.570;2023-03-14T12:51:18;0.00;;;0.00;;
13269;SDS011;6703;51.994;7.570;2023-03-14T12:59:39;0.00;;;0.00;;
13269;SDS011;6703;51.994;7.570;2023-03-14T13:02:16;0.00;;;0.00;;
13269;SDS011;6703;51.994;7.570;2023-03-14T13:04:50;0.00;;;0.00;;
13269;SDS011;6703;51.994;7.570;2023-03-14T13:07:30;0.17;;;0.17;;
13269;SDS011;6703;51.994;7.570;2023-03-14T13:10:02;0.20;;;0.20;;
13269;SDS011;6703;51.994;7.570;2023-03-14T13:12:37;0.00;;;0.00;;
13269;SDS011;6703;51.994;7.570;2023-03-14T13:15:17;0.40;;;0.30;;
13269;SDS011;6703;51.994;7.570;2023-03-14T13:17:47;0.20;;;0.20;;
13269;SDS011;6703;51.994;7.570;2023-03-14T13:20:18;0.00;;;0.00;;
13269;SDS011;6703;51.994;7.570;2023-03-14T13:22:49;0.00;;;0.00;;
13269;SDS011;6703;51.994;7.570;2023-03-14T13:25:18;0.10;;;0.10;;
13269;SDS011;6703;51.994;7.570;2023-03-14T13:27:48;0.00;;;0.00;;
13269;SDS011;6703;51.994;7.570;2023-03-14T13:30:18;1.60;;;1.50;;
13269;SDS011;6703;51.994;7.570;2023-03-14T13:32:49;0.20;;;0.20;;
13269;SDS011;6703;51.994;7.570;2023-03-14T13:35:19;0.10;;;0.10;;
13269;SDS011;6703;51.994;7.570;2023-03-14T13:37:51;0.00;;;0.00;;
13269;SDS011;6703;51.994;7.570;2023-03-14T13:40:34;0.20;;;0.20;;
13269;SDS011;6703;51.994;7.570;2023-03-14T13:43:03;0.00;;;0.00;;
13269;SDS011;6703;51.994;7.570;2023-03-14T13:45:49;0.80;;;0.40;;
13269;SDS011;6703;51.994;7.570;2023-03-14T13:48:18;1.10;;;0.60;;
13269;SDS011;6703;51.994;7.570;2023-03-14T13:50:54;0.10;;;0.10;;
13269;SDS011;6703;51.994;7.570;2023-03-14T13:53:23;0.70;;;0.30;;
13269;SDS011;6703;51.994;7.570;2023-03-14T13:55:53;0.80;;;0.70;;
13269;SDS011;6703;51.994;7.570;2023-03-14T13:58:22;0.00;;;0.00;;
13269;SDS011;6703;51.994;7.570;2023-03-14T14:00:56;0.00;;;0.00;;
13269;SDS011;6703;51.994;7.570;2023-03-14T14:03:26;4.13;;;1.15;;
13269;SDS011;6703;51.994;7.570;2023-03-14T14:05:55;0.20;;;0.20;;
13269;SDS011;6703;51.994;7.570;2023-03-14T14:08:25;0.00;;;0.00;;
13269;SDS011;6703;51.994;7.570;2023-03-14T14:10:57;1.00;;;0.90;;
13269;SDS011;6703;51.994;7.570;2023-03-14T14:13:27;0.00;;;0.00;;
13269;SDS011;6703;51.994;7.570;2023-03-14T14:15:55;10.00;;;1.00;;
13269;SDS011;6703;51.994;7.570;2023-03-14T14:18:24;15.07;;;1.70;;
13269;SDS011;6703;51.994;7.570;2023-03-14T14:20:53;9.60;;;1.70;;
13269;SDS011;6703;51.994;7.570;2023-03-14T14:23:21;9.73;;;1.70;;
13269;SDS011;6703;51.994;7.570;2023-03-14T14:25:53;11.60;;;2.13;;
13269;SDS011;6703;51.994;7.570;2023-03-14T14:28:24;10.30;;;1.35;;
13269;SDS011;6703;51.994;7.570;2023-03-14T14:31:01;11.23;;;1.52;;
13269;SDS011;6703;51.994;7.570;2023-03-14T14:33:38;13.05;;;1.80;;
13269;SDS011;6703;51.994;7.570;2023-03-14T14:36:17;16.30;;;1.88;;
13269;SDS011;6703;51.994;7.570;2023-03-14T14:38:50;11.30;;;1.33;;
13269;SDS011;6703;51.994;7.570;2023-03-14T14:41:22;7.50;;;1.35;;
13269;SDS011;6703;51.994;7.570;2023-03-14T14:43:54;8.37;;;1.43;;
13269;SDS011;6703;51.994;7.570;2023-03-14T14:46:22;8.00;;;1.30;;
13269;SDS011;6703;51.994;7.570;2023-03-14T14:48:50;6.90;;;1.90;;
13269;SDS011;6703;51.994;7.570;2023-03-14T14:51:23;6.90;;;1.27;;
13269;SDS011;6703;51.994;7.570;2023-03-14T14:54:09;6.60;;;1.10;;
13269;SDS011;6703;51.994;7.570;2023-03-14T14:56:40;5.57;;;1.30;;
13269;SDS011;6703;51.994;7.570;2023-03-14T14:59:20;9.60;;;2.30;;
13269;SDS011;6703;51.994;7.570;2023-03-14T15:01:54;12.07;;;1.80;;
13269;SDS011;6703;51.994;7.570;2023-03-14T15:04:22;4.43;;;1.13;;
13269;SDS011;6703;51.994;7.570;2023-03-14T15:06:50;7.10;;;1.35;;
13269;SDS011;6703;51.994;7.570;2023-03-14T15:09:19;6.95;;;1.10;;
13269;SDS011;6703;51.994;7.570;2023-03-14T15:11:48;7.40;;;1.42;;
13269;SDS011;6703;51.994;7.570;2023-03-14T15:14:16;8.50;;;2.13;;
13269;SDS011;6703;51.994;7.570;2023-03-14T15:16:44;4.75;;;1.00;;
13269;SDS011;6703;51.994;7.570;2023-03-14T15:19:13;6.95;;;0.95;;
13269;SDS011;6703;51.994;7.570;2023-03-14T15:21:50;8.17;;;0.90;;
13269;SDS011;6703;51.994;7.570;2023-03-14T15:24:18;5.95;;;1.40;;
13269;SDS011;6703;51.994;7.570;2023-03-14T15:26:46;9.98;;;1.23;;
13269;SDS011;6703;51.994;7.570;2023-03-14T15:29:15;6.15;;;0.95;;
13269;SDS011;6703;51.994;7.570;2023-03-14T15:31:43;7.38;;;1.63;;
13269;SDS011;6703;51.994;7.570;2023-03-14T15:34:11;7.20;;;1.70;;
13269;SDS011;6703;51.994;7.570;2023-03-14T15:36:38;7.20;;;1.15;;